sensor_id;sensor_type;location;lat;lon;timestamp;P1;durP1;ratioP1;P2;durP2;ratioP2
7263;SDS011;3673;52.480;13.348;2023-07-31T00:00:12;5.68;;;2.10;;
7263;SDS011;3673;52.480;13.348;2023-07-31T00:02:39;3.72;;;1.75;;
7263;SDS011;3673;52.480;13.348;2023-07-31T00:05:08;3.15;;;1.55;;
7263;SDS011;3673;52.480;13.348;2023-07-31T00:07:35;3.15;;;1.50;;
7263;SDS011;3673;52.480;13.348;2023-07-31T00:10:02;11.70;;;2.35;;
7263;SDS011;3673;52.480;13.348;2023-07-31T00:12:29;3.33;;;1.70;;
7263;SDS011;3673;52.480;13.348;2023-07-31T00:14:55;4.47;;;1.67;;
7263;SDS011;3673;52.480;13.348;2023-07-31T00:17:24;4.35;;;1.77;;
7263;SDS011;3673;52.480;13.348;2023-07-31T00:19:50;4.97;;;2.17;;
7263;SDS011;3673;52.480;13.348;2023-07-31T00:22:17;3.75;;;2.15;;
7263;SDS011;3673;52.480;13.348;2023-07-31T00:24:44;3.53;;;1.50;;
7263;SDS011;3673;52.480;13.348;2023-07-31T00:27:10;6.65;;;2.22;;
7263;SDS011;3673;52.480;13.348;2023-07-31T00:29:37;3.72;;;1.90;;
7263;SDS011;3673;52.480;13.348;2023-07-31T00:32:04;4.93;;;2.00;;
7263;SDS011;3673;52.480;13.348;2023-07-31T00:34:33;5.25;;;1.45;;
7263;SDS011;3673;52.480;13.348;2023-07-31T00:37:00;3.22;;;1.50;;
7263;SDS011;3673;52.480;13.348;2023-07-31T00:39:27;4.60;;;1.63;;
7263;SDS011;3673;52.480;13.348;2023-07-31T00:41:54;5.05;;;2.38;;
7263;SDS011;3673;52.480;13.348;2023-07-31T00:44:20;5.97;;;1.85;;
7263;SDS011;3673;52.480;13.348;2023-07-31T00:46:47;2.65;;;1.58;;
7263;SDS011;3673;52.480;13.348;2023-07-31T00:49:14;2.13;;;1.70;;
7263;SDS011;3673;52.480;13.348;2023-07-31T00:51:42;3.13;;;1.73;;
7263;SDS011;3673;52.480;13.348;2023-07-31T00:54:09;2.97;;;1.60;;
7263;SDS011;3673;52.480;13.348;2023-07-31T00:56:37;3.03;;;1.88;;
7263;SDS011;3673;52.480;13.348;2023-07-31T00:59:05;7.93;;;2.10;;
7263;SDS011;3673;52.480;13.348;2023-07-31T01:01:32;5.65;;;2.20;;
7263;SDS011;3673;52.480;13.348;2023-07-31T01:03:59;4.38;;;2.00;;
7263;SDS011;3673;52.480;13.348;2023-07-31T01:06:27;4.80;;;2.03;;
7263;SDS011;3673;52.480;13.348;2023-07-31T01:09:14;3.97;;;1.90;;
7263;SDS011;3673;52.480;13.348;2023-07-31T01:11:49;3.45;;;2.10;;
7263;SDS011;3673;52.480;13.348;2023-07-31T01:14:22;3.40;;;1.90;;
7263;SDS011;3673;52.480;13.348;2023-07-31T01:16:49;5.38;;;2.38;;
7263;SDS011;3673;52.480;13.348;2023-07-31T01:19:15;3.00;;;1.55;;
7263;SDS011;3673;52.480;13.348;2023-07-31T01:21:53;3.88;;;2.10;;
7263;SDS011;3673;52.480;13.348;2023-07-31T01:24:40;5.57;;;2.13;;
7263;SDS011;3673;52.480;13.348;2023-07-31T01:27:23;4.32;;;1.98;;
7263;SDS011;3673;52.480;13.348;2023-07-31T01:29:55;6.88;;;2.35;;
7263;SDS011;3673;52.480;13.348;2023-07-31T01:32:29;4.55;;;2.33;;
7263;SDS011;3673;52.480;13.348;2023-07-31T01:34:56;3.72;;;2.53;;
7263;SDS011;3673;52.480;13.348;2023-07-31T01:37:27;5.80;;;2.22;;
7263;SDS011;3673;52.480;13.348;2023-07-31T01:39:55;4.63;;;2.33;;
7263;SDS011;3673;52.480;13.348;2023-07-31T01:42:23;4.65;;;2.20;;
7263;SDS011;3673;52.480;13.348;2023-07-31T01:44:49;8.25;;;2.58;;
7263;SDS011;3673;52.480;13.348;2023-07-31T01:47:16;4.43;;;1.95;;
7263;SDS011;3673;52.480;13.348;2023-07-31T01:49:43;2.92;;;2.30;;
7263;SDS011;3673;52.480;13.348;2023-07-31T01:52:10;4.85;;;2.60;;
7263;SDS011;3673;52.480;13.348;2023-07-31T01:54:36;3.47;;;2.33;;
7263;SDS011;3673;52.480;13.348;2023-07-31T01:57:03;6.05;;;2.05;;
7263;SDS011;3673;52.480;13.348;2023-07-31T01:59:32;6.88;;;2.35;;
7263;SDS011;3673;52.480;13.348;2023-07-31T02:01:58;2.95;;;2.28;;
7263;SDS011;3673;52.480;13.348;2023-07-31T02:04:26;5.30;;;2.10;;
7263;SDS011;3673;52.480;13.348;2023-07-31T02:06:53;5.88;;;2.30;;
7263;SDS011;3673;52.480;13.348;2023-07-31T02:09:19;3.67;;;1.95;;
7263;SDS011;3673;52.480;13.348;2023-07-31T02:11:46;7.35;;;2.78;;
7263;SDS011;3673;52.480;13.348;2023-07-31T02:14:13;4.03;;;2.30;;
7263;SDS011;3673;52.480;13.348;2023-07-31T02:16:41;5.38;;;2.53;;
7263;SDS011;3673;52.480;13.348;2023-07-31T02:19:08;3.50;;;2.30;;
7263;SDS011;3673;52.480;13.348;2023-07-31T02:21:35;4.07;;;2.38;;
7263;SDS011;3673;52.480;13.348;2023-07-31T02:24:02;4.72;;;2.45;;
7263;SDS011;3673;52.480;13.348;2023-07-31T02:26:29;3.50;;;2.40;;
7263;SDS011;3673;52.480;13.348;2023-07-31T02:28:55;4.13;;;2.33;;
7263;SDS011;3673;52.480;13.348;2023-07-31T02:31:22;3.35;;;2.03;;
7263;SDS011;3673;52.480;13.348;2023-07-31T02:33:50;4.07;;;2.30;;
7263;SDS011;3673;52.480;13.348;2023-07-31T02:36:17;5.88;;;3.50;;
7263;SDS011;3673;52.480;13.348;2023-07-31T02:38:44;4.65;;;2.50;;
7263;SDS011;3673;52.480;13.348;2023-07-31T02:41:10;3.35;;;2.65;;
7263;SDS011;3673;52.480;13.348;2023-07-31T02:43:37;3.13;;;2.20;;
7263;SDS011;3673;52.480;13.348;2023-07-31T02:46:04;4.30;;;2.53;;
7263;SDS011;3673;52.480;13.348;2023-07-31T02:48:31;5.45;;;2.42;;
7263;SDS011;3673;52.480;13.348;2023-07-31T02:50:59;4.03;;;2.53;;
7263;SDS011;3673;52.480;13.348;2023-07-31T02:53:26;6.18;;;3.28;;
7263;SDS011;3673;52.480;13.348;2023-07-31T02:55:52;4.70;;;2.40;;
7263;SDS011;3673;52.480;13.348;2023-07-31T02:58:19;5.72;;;2.85;;
7263;SDS011;3673;52.480;13.348;2023-07-31T03:00:46;5.30;;;2.88;;
7263;SDS011;3673;52.480;13.348;2023-07-31T03:03:13;5.55;;;2.63;;
7263;SDS011;3673;52.480;13.348;2023-07-31T03:05:39;6.35;;;2.60;;
7263;SDS011;3673;52.480;13.348;2023-07-31T03:08:07;5.45;;;2.95;;
7263;SDS011;3673;52.480;13.348;2023-07-31T03:10:34;4.15;;;2.78;;
7263;SDS011;3673;52.480;13.348;2023-07-31T03:13:01;5.25;;;3.55;;
7263;SDS011;3673;52.480;13.348;2023-07-31T03:15:27;6.05;;;3.25;;
7263;SDS011;3673;52.480;13.348;2023-07-31T03:17:54;5.82;;;3.30;;
7263;SDS011;3673;52.480;13.348;2023-07-31T03:20:21;6.90;;;3.65;;
7263;SDS011;3673;52.480;13.348;2023-07-31T03:22:47;5.65;;;3.22;;
7263;SDS011;3673;52.480;13.348;2023-07-31T03:25:16;8.80;;;3.35;;
7263;SDS011;3673;52.480;13.348;2023-07-31T03:27:42;7.95;;;3.90;;
7263;SDS011;3673;52.480;13.348;2023-07-31T03:30:09;5.70;;;3.28;;
7263;SDS011;3673;52.480;13.348;2023-07-31T03:32:37;5.65;;;3.20;;
7263;SDS011;3673;52.480;13.348;2023-07-31T03:35:04;6.00;;;3.20;;
7263;SDS011;3673;52.480;13.348;2023-07-31T03:37:31;7.82;;;3.60;;
7263;SDS011;3673;52.480;13.348;2023-07-31T03:39:58;4.07;;;3.33;;
7263;SDS011;3673;52.480;13.348;2023-07-31T03:42:26;5.53;;;3.25;;
7263;SDS011;3673;52.480;13.348;2023-07-31T03:44:53;7.80;;;3.72;;
7263;SDS011;3673;52.480;13.348;2023-07-31T03:47:19;4.57;;;3.13;;
7263;SDS011;3673;52.480;13.348;2023-07-31T03:49:46;7.68;;;3.88;;
7263;SDS011;3673;52.480;13.348;2023-07-31T03:52:13;7.47;;;3.55;;
7263;SDS011;3673;52.480;13.348;2023-07-31T03:54:40;6.43;;;3.35;;
7263;SDS011;3673;52.480;13.348;2023-07-31T03:57:06;6.57;;;4.07;;
7263;SDS011;3673;52.480;13.348;2023-07-31T03:59:34;6.93;;;3.63;;
7263;SDS011;3673;52.480;13.348;2023-07-31T04:02:03;12.02;;;4.85;;
7263;SDS011;3673;52.480;13.348;2023-07-31T04:04:30;6.10;;;3.72;;
7263;SDS011;3673;52.480;13.348;2023-07-31T04:06:57;10.80;;;3.78;;
7263;SDS011;3673;52.480;13.348;2023-07-31T04:09:24;8.70;;;3.75;;
7263;SDS011;3673;52.480;13.348;2023-07-31T04:11:50;8.43;;;3.35;;
7263;SDS011;3673;52.480;13.348;2023-07-31T04:14:17;6.60;;;3.40;;
7263;SDS011;3673;52.480;13.348;2023-07-31T04:16:45;10.90;;;4.03;;
7263;SDS011;3673;52.480;13.348;2023-07-31T04:19:12;8.00;;;3.67;;
7263;SDS011;3673;52.480;13.348;2023-07-31T04:21:41;9.63;;;3.78;;
7263;SDS011;3673;52.480;13.348;2023-07-31T04:24:08;5.78;;;3.63;;
7263;SDS011;3673;52.480;13.348;2023-07-31T04:26:35;6.15;;;3.35;;
7263;SDS011;3673;52.480;13.348;2023-07-31T04:29:01;6.10;;;3.17;;
7263;SDS011;3673;52.480;13.348;2023-07-31T04:31:28;9.05;;;3.75;;
7263;SDS011;3673;52.480;13.348;2023-07-31T04:33:56;7.70;;;3.33;;
7263;SDS011;3673;52.480;13.348;2023-07-31T04:36:23;6.65;;;3.75;;
7263;SDS011;3673;52.480;13.348;2023-07-31T04:38:50;6.30;;;3.65;;
7263;SDS011;3673;52.480;13.348;2023-07-31T04:41:16;9.32;;;4.00;;
7263;SDS011;3673;52.480;13.348;2023-07-31T04:43:43;6.97;;;3.50;;
7263;SDS011;3673;52.480;13.348;2023-07-31T04:46:10;6.22;;;3.70;;
7263;SDS011;3673;52.480;13.348;2023-07-31T04:48:36;7.75;;;3.60;;
7263;SDS011;3673;52.480;13.348;2023-07-31T04:51:04;9.35;;;3.95;;
7263;SDS011;3673;52.480;13.348;2023-07-31T04:53:31;5.45;;;3.10;;
7263;SDS011;3673;52.480;13.348;2023-07-31T04:55:58;6.15;;;3.83;;
7263;SDS011;3673;52.480;13.348;2023-07-31T04:58:25;7.75;;;3.75;;
7263;SDS011;3673;52.480;13.348;2023-07-31T05:00:52;6.25;;;3.75;;
7263;SDS011;3673;52.480;13.348;2023-07-31T05:03:18;9.85;;;4.00;;
7263;SDS011;3673;52.480;13.348;2023-07-31T05:05:45;11.95;;;4.72;;
7263;SDS011;3673;52.480;13.348;2023-07-31T05:08:13;8.77;;;4.68;;
7263;SDS011;3673;52.480;13.348;2023-07-31T05:10:42;6.05;;;3.65;;
7263;SDS011;3673;52.480;13.348;2023-07-31T05:13:09;8.52;;;4.13;;
7263;SDS011;3673;52.480;13.348;2023-07-31T05:15:36;7.00;;;3.85;;
7263;SDS011;3673;52.480;13.348;2023-07-31T05:18:02;6.60;;;3.72;;
7263;SDS011;3673;52.480;13.348;2023-07-31T05:20:29;13.23;;;4.00;;
7263;SDS011;3673;52.480;13.348;2023-07-31T05:22:56;6.13;;;3.75;;
7263;SDS011;3673;52.480;13.348;2023-07-31T05:25:24;6.40;;;3.58;;
7263;SDS011;3673;52.480;13.348;2023-07-31T05:27:51;7.38;;;4.18;;
7263;SDS011;3673;52.480;13.348;2023-07-31T05:30:18;10.60;;;4.35;;
7263;SDS011;3673;52.480;13.348;2023-07-31T05:32:46;8.90;;;3.90;;
7263;SDS011;3673;52.480;13.348;2023-07-31T05:35:12;5.38;;;3.45;;
7263;SDS011;3673;52.480;13.348;2023-07-31T05:37:39;8.13;;;5.53;;
7263;SDS011;3673;52.480;13.348;2023-07-31T05:40:06;12.18;;;5.60;;
7263;SDS011;3673;52.480;13.348;2023-07-31T05:42:35;5.38;;;3.17;;
7263;SDS011;3673;52.480;13.348;2023-07-31T05:45:03;7.13;;;3.70;;
7263;SDS011;3673;52.480;13.348;2023-07-31T05:47:32;5.72;;;3.38;;
7263;SDS011;3673;52.480;13.348;2023-07-31T05:49:59;5.53;;;3.03;;
7263;SDS011;3673;52.480;13.348;2023-07-31T05:52:25;4.55;;;3.05;;
7263;SDS011;3673;52.480;13.348;2023-07-31T05:54:53;6.28;;;2.80;;
7263;SDS011;3673;52.480;13.348;2023-07-31T05:57:20;6.45;;;3.33;;
7263;SDS011;3673;52.480;13.348;2023-07-31T05:59:48;5.78;;;2.80;;
7263;SDS011;3673;52.480;13.348;2023-07-31T06:02:15;5.03;;;2.75;;
7263;SDS011;3673;52.480;13.348;2023-07-31T06:04:42;6.43;;;2.83;;
7263;SDS011;3673;52.480;13.348;2023-07-31T06:07:09;5.20;;;2.70;;
7263;SDS011;3673;52.480;13.348;2023-07-31T06:09:36;3.45;;;2.40;;
7263;SDS011;3673;52.480;13.348;2023-07-31T06:12:03;5.97;;;2.80;;
7263;SDS011;3673;52.480;13.348;2023-07-31T06:14:31;6.28;;;3.13;;
7263;SDS011;3673;52.480;13.348;2023-07-31T06:16:59;10.80;;;3.80;;
7263;SDS011;3673;52.480;13.348;2023-07-31T06:19:25;4.38;;;2.95;;
7263;SDS011;3673;52.480;13.348;2023-07-31T06:21:52;5.40;;;3.22;;
7263;SDS011;3673;52.480;13.348;2023-07-31T06:24:19;9.93;;;2.75;;
7263;SDS011;3673;52.480;13.348;2023-07-31T06:26:47;4.43;;;2.65;;
7263;SDS011;3673;52.480;13.348;2023-07-31T06:29:13;5.90;;;3.03;;
7263;SDS011;3673;52.480;13.348;2023-07-31T06:31:40;9.20;;;3.10;;
7263;SDS011;3673;52.480;13.348;2023-07-31T06:34:08;7.50;;;2.80;;
7263;SDS011;3673;52.480;13.348;2023-07-31T06:36:35;5.80;;;2.60;;
7263;SDS011;3673;52.480;13.348;2023-07-31T06:39:02;6.85;;;2.50;;
7263;SDS011;3673;52.480;13.348;2023-07-31T06:41:31;5.70;;;2.83;;
7263;SDS011;3673;52.480;13.348;2023-07-31T06:43:58;4.50;;;2.55;;
7263;SDS011;3673;52.480;13.348;2023-07-31T06:46:24;8.60;;;2.22;;
7263;SDS011;3673;52.480;13.348;2023-07-31T06:48:51;4.65;;;2.70;;
7263;SDS011;3673;52.480;13.348;2023-07-31T06:51:19;5.13;;;2.97;;
7263;SDS011;3673;52.480;13.348;2023-07-31T06:53:46;4.22;;;2.88;;
7263;SDS011;3673;52.480;13.348;2023-07-31T06:56:13;7.57;;;3.50;;
7263;SDS011;3673;52.480;13.348;2023-07-31T06:58:39;5.68;;;2.70;;
7263;SDS011;3673;52.480;13.348;2023-07-31T07:01:06;4.32;;;2.40;;
7263;SDS011;3673;52.480;13.348;2023-07-31T07:03:33;7.88;;;2.25;;
7263;SDS011;3673;52.480;13.348;2023-07-31T07:05:59;7.72;;;2.45;;
7263;SDS011;3673;52.480;13.348;2023-07-31T07:08:28;5.53;;;2.72;;
7263;SDS011;3673;52.480;13.348;2023-07-31T07:10:54;6.35;;;2.72;;
7263;SDS011;3673;52.480;13.348;2023-07-31T07:13:21;5.88;;;2.45;;
7263;SDS011;3673;52.480;13.348;2023-07-31T07:15:48;6.60;;;2.80;;
7263;SDS011;3673;52.480;13.348;2023-07-31T07:18:15;4.80;;;2.72;;
7263;SDS011;3673;52.480;13.348;2023-07-31T07:20:45;5.78;;;2.50;;
7263;SDS011;3673;52.480;13.348;2023-07-31T07:23:13;7.78;;;2.50;;
7263;SDS011;3673;52.480;13.348;2023-07-31T07:25:41;7.97;;;2.95;;
7263;SDS011;3673;52.480;13.348;2023-07-31T07:28:08;3.50;;;2.30;;
7263;SDS011;3673;52.480;13.348;2023-07-31T07:30:35;3.63;;;2.75;;
7263;SDS011;3673;52.480;13.348;2023-07-31T07:33:02;3.63;;;2.42;;
7263;SDS011;3673;52.480;13.348;2023-07-31T07:35:29;6.63;;;2.80;;
7263;SDS011;3673;52.480;13.348;2023-07-31T07:37:56;5.78;;;2.70;;
7263;SDS011;3673;52.480;13.348;2023-07-31T07:40:22;5.57;;;2.85;;
7263;SDS011;3673;52.480;13.348;2023-07-31T07:42:50;4.57;;;2.78;;
7263;SDS011;3673;52.480;13.348;2023-07-31T07:45:17;7.07;;;2.70;;
7263;SDS011;3673;52.480;13.348;2023-07-31T07:47:44;6.28;;;3.10;;
7263;SDS011;3673;52.480;13.348;2023-07-31T07:50:11;5.95;;;2.97;;
7263;SDS011;3673;52.480;13.348;2023-07-31T07:52:37;5.85;;;2.85;;
7263;SDS011;3673;52.480;13.348;2023-07-31T07:55:04;4.60;;;2.53;;
7263;SDS011;3673;52.480;13.348;2023-07-31T07:57:32;6.63;;;3.25;;
7263;SDS011;3673;52.480;13.348;2023-07-31T08:00:00;3.45;;;2.33;;
7263;SDS011;3673;52.480;13.348;2023-07-31T08:02:27;2.78;;;2.13;;
7263;SDS011;3673;52.480;13.348;2023-07-31T08:04:54;6.68;;;2.50;;
7263;SDS011;3673;52.480;13.348;2023-07-31T08:07:21;3.92;;;1.95;;
7263;SDS011;3673;52.480;13.348;2023-07-31T08:09:47;4.60;;;2.53;;
7263;SDS011;3673;52.480;13.348;2023-07-31T08:12:14;3.78;;;2.42;;
7263;SDS011;3673;52.480;13.348;2023-07-31T08:14:41;4.07;;;2.30;;
7263;SDS011;3673;52.480;13.348;2023-07-31T08:17:09;4.00;;;2.20;;
7263;SDS011;3673;52.480;13.348;2023-07-31T08:19:36;2.65;;;2.20;;
7263;SDS011;3673;52.480;13.348;2023-07-31T08:22:03;3.58;;;2.58;;
7263;SDS011;3673;52.480;13.348;2023-07-31T08:24:30;2.63;;;2.10;;
7263;SDS011;3673;52.480;13.348;2023-07-31T08:26:57;6.72;;;2.33;;
7263;SDS011;3673;52.480;13.348;2023-07-31T08:29:24;5.15;;;2.50;;
7263;SDS011;3673;52.480;13.348;2023-07-31T08:31:51;2.78;;;2.05;;
7263;SDS011;3673;52.480;13.348;2023-07-31T08:34:19;3.85;;;2.40;;
7263;SDS011;3673;52.480;13.348;2023-07-31T08:36:46;4.43;;;2.33;;
7263;SDS011;3673;52.480;13.348;2023-07-31T08:39:12;5.18;;;2.30;;
7263;SDS011;3673;52.480;13.348;2023-07-31T08:41:39;3.97;;;2.53;;
7263;SDS011;3673;52.480;13.348;2023-07-31T08:44:06;3.15;;;2.30;;
7263;SDS011;3673;52.480;13.348;2023-07-31T08:46:33;4.75;;;2.13;;
7263;SDS011;3673;52.480;13.348;2023-07-31T08:49:02;4.45;;;2.08;;
7263;SDS011;3673;52.480;13.348;2023-07-31T08:51:33;6.53;;;3.25;;
7263;SDS011;3673;52.480;13.348;2023-07-31T08:54:00;5.00;;;2.47;;
7263;SDS011;3673;52.480;13.348;2023-07-31T08:56:28;3.20;;;2.35;;
7263;SDS011;3673;52.480;13.348;2023-07-31T08:58:57;4.30;;;2.80;;
7263;SDS011;3673;52.480;13.348;2023-07-31T09:01:25;5.03;;;2.00;;
7263;SDS011;3673;52.480;13.348;2023-07-31T09:03:55;3.97;;;2.13;;
7263;SDS011;3673;52.480;13.348;2023-07-31T09:06:25;4.15;;;1.80;;
7263;SDS011;3673;52.480;13.348;2023-07-31T09:08:56;3.20;;;2.15;;
7263;SDS011;3673;52.480;13.348;2023-07-31T09:11:23;3.78;;;2.45;;
7263;SDS011;3673;52.480;13.348;2023-07-31T09:13:51;3.75;;;2.03;;
7263;SDS011;3673;52.480;13.348;2023-07-31T09:16:24;6.00;;;1.75;;
7263;SDS011;3673;52.480;13.348;2023-07-31T09:18:55;3.80;;;1.92;;
7263;SDS011;3673;52.480;13.348;2023-07-31T09:21:23;3.13;;;1.85;;
7263;SDS011;3673;52.480;13.348;2023-07-31T09:23:50;3.70;;;1.73;;
7263;SDS011;3673;52.480;13.348;2023-07-31T09:26:30;3.20;;;1.85;;
7263;SDS011;3673;52.480;13.348;2023-07-31T09:28:58;3.05;;;1.52;;
7263;SDS011;3673;52.480;13.348;2023-07-31T09:31:31;3.88;;;1.40;;
7263;SDS011;3673;52.480;13.348;2023-07-31T09:34:04;4.03;;;1.33;;
7263;SDS011;3673;52.480;13.348;2023-07-31T09:36:30;2.80;;;1.52;;
7263;SDS011;3673;52.480;13.348;2023-07-31T09:38:58;2.22;;;1.70;;
7263;SDS011;3673;52.480;13.348;2023-07-31T09:41:30;3.72;;;1.38;;
7263;SDS011;3673;52.480;13.348;2023-07-31T09:43:57;2.88;;;1.25;;
7263;SDS011;3673;52.480;13.348;2023-07-31T09:46:24;2.70;;;1.45;;
7263;SDS011;3673;52.480;13.348;2023-07-31T09:48:53;2.42;;;1.48;;
7263;SDS011;3673;52.480;13.348;2023-07-31T09:51:31;2.63;;;1.33;;
7263;SDS011;3673;52.480;13.348;2023-07-31T09:54:03;1.88;;;1.60;;
7263;SDS011;3673;52.480;13.348;2023-07-31T09:56:36;2.58;;;1.40;;
7263;SDS011;3673;52.480;13.348;2023-07-31T09:59:10;4.63;;;1.90;;
7263;SDS011;3673;52.480;13.348;2023-07-31T10:01:39;3.83;;;2.50;;
7263;SDS011;3673;52.480;13.348;2023-07-31T10:04:07;3.15;;;1.90;;
7263;SDS011;3673;52.480;13.348;2023-07-31T10:06:35;2.88;;;1.75;;
7263;SDS011;3673;52.480;13.348;2023-07-31T10:09:05;2.45;;;1.90;;
7263;SDS011;3673;52.480;13.348;2023-07-31T10:11:34;3.95;;;2.50;;
7263;SDS011;3673;52.480;13.348;2023-07-31T10:14:09;4.35;;;2.47;;
7263;SDS011;3673;52.480;13.348;2023-07-31T10:16:37;4.38;;;2.50;;
7263;SDS011;3673;52.480;13.348;2023-07-31T10:19:05;5.30;;;2.92;;
7263;SDS011;3673;52.480;13.348;2023-07-31T10:21:34;3.90;;;3.22;;
7263;SDS011;3673;52.480;13.348;2023-07-31T10:24:02;4.90;;;3.35;;
7263;SDS011;3673;52.480;13.348;2023-07-31T10:26:31;6.18;;;3.15;;
7263;SDS011;3673;52.480;13.348;2023-07-31T10:29:00;10.98;;;3.67;;
7263;SDS011;3673;52.480;13.348;2023-07-31T10:31:27;7.68;;;3.42;;
7263;SDS011;3673;52.480;13.348;2023-07-31T10:33:55;6.85;;;3.22;;
7263;SDS011;3673;52.480;13.348;2023-07-31T10:36:24;7.03;;;3.47;;
7263;SDS011;3673;52.480;13.348;2023-07-31T10:38:50;4.30;;;3.05;;
7263;SDS011;3673;52.480;13.348;2023-07-31T10:41:18;4.43;;;3.08;;
7263;SDS011;3673;52.480;13.348;2023-07-31T10:43:45;4.88;;;3.40;;
7263;SDS011;3673;52.480;13.348;2023-07-31T10:46:14;5.00;;;3.17;;
7263;SDS011;3673;52.480;13.348;2023-07-31T10:48:41;4.82;;;3.05;;
7263;SDS011;3673;52.480;13.348;2023-07-31T10:51:08;5.97;;;3.28;;
7263;SDS011;3673;52.480;13.348;2023-07-31T10:53:38;4.72;;;3.13;;
7263;SDS011;3673;52.480;13.348;2023-07-31T10:56:07;4.63;;;3.08;;
7263;SDS011;3673;52.480;13.348;2023-07-31T10:58:37;4.50;;;2.90;;
7263;SDS011;3673;52.480;13.348;2023-07-31T11:01:05;7.90;;;2.95;;
7263;SDS011;3673;52.480;13.348;2023-07-31T11:03:43;9.48;;;3.05;;
7263;SDS011;3673;52.480;13.348;2023-07-31T11:06:13;4.25;;;2.95;;
7263;SDS011;3673;52.480;13.348;2023-07-31T11:08:41;4.80;;;3.20;;
7263;SDS011;3673;52.480;13.348;2023-07-31T11:11:10;4.75;;;3.08;;
7263;SDS011;3673;52.480;13.348;2023-07-31T11:13:42;3.65;;;2.97;;
7263;SDS011;3673;52.480;13.348;2023-07-31T11:16:14;5.57;;;3.78;;
7263;SDS011;3673;52.480;13.348;2023-07-31T11:18:43;5.80;;;3.10;;
7263;SDS011;3673;52.480;13.348;2023-07-31T11:21:12;6.25;;;3.25;;
7263;SDS011;3673;52.480;13.348;2023-07-31T11:23:40;5.72;;;3.40;;
7263;SDS011;3673;52.480;13.348;2023-07-31T11:26:11;5.47;;;3.33;;
7263;SDS011;3673;52.480;13.348;2023-07-31T11:28:38;6.85;;;3.53;;
7263;SDS011;3673;52.480;13.348;2023-07-31T11:31:08;4.40;;;2.65;;
7263;SDS011;3673;52.480;13.348;2023-07-31T11:33:36;6.60;;;3.05;;
7263;SDS011;3673;52.480;13.348;2023-07-31T11:36:04;6.30;;;3.15;;
7263;SDS011;3673;52.480;13.348;2023-07-31T11:38:31;4.90;;;3.08;;
7263;SDS011;3673;52.480;13.348;2023-07-31T11:41:00;5.85;;;2.83;;
7263;SDS011;3673;52.480;13.348;2023-07-31T11:43:28;4.63;;;2.72;;
7263;SDS011;3673;52.480;13.348;2023-07-31T11:45:57;4.68;;;2.70;;
7263;SDS011;3673;52.480;13.348;2023-07-31T11:48:28;5.63;;;3.17;;
7263;SDS011;3673;52.480;13.348;2023-07-31T11:50:58;5.38;;;3.22;;
7263;SDS011;3673;52.480;13.348;2023-07-31T11:53:28;7.25;;;3.08;;
7263;SDS011;3673;52.480;13.348;2023-07-31T11:55:59;4.38;;;2.95;;
7263;SDS011;3673;52.480;13.348;2023-07-31T11:58:29;4.32;;;3.10;;
7263;SDS011;3673;52.480;13.348;2023-07-31T12:00:57;4.90;;;2.92;;
7263;SDS011;3673;52.480;13.348;2023-07-31T12:03:25;5.93;;;3.28;;
7263;SDS011;3673;52.480;13.348;2023-07-31T12:05:52;6.03;;;3.00;;
7263;SDS011;3673;52.480;13.348;2023-07-31T12:08:20;4.57;;;3.25;;
7263;SDS011;3673;52.480;13.348;2023-07-31T12:10:51;9.13;;;3.67;;
7263;SDS011;3673;52.480;13.348;2023-07-31T12:13:20;5.03;;;2.90;;
7263;SDS011;3673;52.480;13.348;2023-07-31T12:15:49;4.93;;;2.60;;
7263;SDS011;3673;52.480;13.348;2023-07-31T12:18:21;5.07;;;2.80;;
7263;SDS011;3673;52.480;13.348;2023-07-31T12:20:49;6.30;;;3.20;;
7263;SDS011;3673;52.480;13.348;2023-07-31T12:23:22;7.43;;;3.28;;
7263;SDS011;3673;52.480;13.348;2023-07-31T12:26:00;6.57;;;2.67;;
7263;SDS011;3673;52.480;13.348;2023-07-31T12:28:29;5.78;;;2.53;;
7263;SDS011;3673;52.480;13.348;2023-07-31T12:30:57;5.18;;;2.65;;
7263;SDS011;3673;52.480;13.348;2023-07-31T12:33:29;5.57;;;2.40;;
7263;SDS011;3673;52.480;13.348;2023-07-31T12:35:59;6.78;;;2.85;;
7263;SDS011;3673;52.480;13.348;2023-07-31T12:38:27;4.03;;;2.63;;
7263;SDS011;3673;52.480;13.348;2023-07-31T12:40:54;4.38;;;2.53;;
7263;SDS011;3673;52.480;13.348;2023-07-31T12:43:22;4.00;;;2.28;;
7263;SDS011;3673;52.480;13.348;2023-07-31T12:45:49;4.93;;;2.67;;
7263;SDS011;3673;52.480;13.348;2023-07-31T12:48:16;4.38;;;2.40;;
7263;SDS011;3673;52.480;13.348;2023-07-31T12:50:44;4.32;;;2.33;;
7263;SDS011;3673;52.480;13.348;2023-07-31T12:53:10;3.55;;;2.30;;
7263;SDS011;3673;52.480;13.348;2023-07-31T12:55:37;5.65;;;1.90;;
7263;SDS011;3673;52.480;13.348;2023-07-31T12:58:04;3.20;;;2.13;;
7263;SDS011;3673;52.480;13.348;2023-07-31T13:00:32;3.67;;;2.40;;
7263;SDS011;3673;52.480;13.348;2023-07-31T13:02:59;2.67;;;1.67;;
7263;SDS011;3673;52.480;13.348;2023-07-31T13:05:26;4.93;;;2.25;;
7263;SDS011;3673;52.480;13.348;2023-07-31T13:07:53;3.63;;;1.90;;
7263;SDS011;3673;52.480;13.348;2023-07-31T13:10:20;2.97;;;1.90;;
7263;SDS011;3673;52.480;13.348;2023-07-31T13:12:48;5.38;;;2.03;;
7263;SDS011;3673;52.480;13.348;2023-07-31T13:15:15;7.22;;;2.30;;
7263;SDS011;3673;52.480;13.348;2023-07-31T13:17:43;3.92;;;2.15;;
7263;SDS011;3673;52.480;13.348;2023-07-31T13:20:10;5.15;;;2.55;;
7263;SDS011;3673;52.480;13.348;2023-07-31T13:22:37;5.95;;;2.22;;
7263;SDS011;3673;52.480;13.348;2023-07-31T13:25:04;5.05;;;2.75;;
7263;SDS011;3673;52.480;13.348;2023-07-31T13:27:33;4.93;;;2.30;;
7263;SDS011;3673;52.480;13.348;2023-07-31T13:30:00;4.75;;;2.42;;
7263;SDS011;3673;52.480;13.348;2023-07-31T13:32:28;3.65;;;2.05;;
7263;SDS011;3673;52.480;13.348;2023-07-31T13:34:56;4.95;;;2.45;;
7263;SDS011;3673;52.480;13.348;2023-07-31T13:37:23;6.55;;;2.95;;
7263;SDS011;3673;52.480;13.348;2023-07-31T13:39:50;4.53;;;2.70;;
7263;SDS011;3673;52.480;13.348;2023-07-31T13:42:17;5.18;;;2.63;;
7263;SDS011;3673;52.480;13.348;2023-07-31T13:44:44;4.70;;;2.70;;
7263;SDS011;3673;52.480;13.348;2023-07-31T13:47:10;5.93;;;2.72;;
7263;SDS011;3673;52.480;13.348;2023-07-31T13:49:37;4.63;;;2.67;;
7263;SDS011;3673;52.480;13.348;2023-07-31T13:52:05;5.40;;;2.55;;
7263;SDS011;3673;52.480;13.348;2023-07-31T13:54:33;5.20;;;2.42;;
7263;SDS011;3673;52.480;13.348;2023-07-31T13:56:59;5.78;;;3.20;;
7263;SDS011;3673;52.480;13.348;2023-07-31T13:59:26;4.30;;;2.83;;
7263;SDS011;3673;52.480;13.348;2023-07-31T14:01:53;3.78;;;2.80;;
7263;SDS011;3673;52.480;13.348;2023-07-31T14:04:20;4.05;;;2.80;;
7263;SDS011;3673;52.480;13.348;2023-07-31T14:06:46;4.90;;;2.75;;
7263;SDS011;3673;52.480;13.348;2023-07-31T14:09:16;3.50;;;2.97;;
7263;SDS011;3673;52.480;13.348;2023-07-31T14:11:43;4.18;;;3.05;;
7263;SDS011;3673;52.480;13.348;2023-07-31T14:14:10;7.28;;;3.60;;
7263;SDS011;3673;52.480;13.348;2023-07-31T14:16:37;4.60;;;2.90;;
7263;SDS011;3673;52.480;13.348;2023-07-31T14:19:04;5.70;;;3.63;;
7263;SDS011;3673;52.480;13.348;2023-07-31T14:21:32;5.43;;;3.40;;
7263;SDS011;3673;52.480;13.348;2023-07-31T14:23:59;4.88;;;2.97;;
7263;SDS011;3673;52.480;13.348;2023-07-31T14:26:27;5.10;;;2.90;;
7263;SDS011;3673;52.480;13.348;2023-07-31T14:28:54;4.95;;;2.80;;
7263;SDS011;3673;52.480;13.348;2023-07-31T14:31:20;3.58;;;2.65;;
7263;SDS011;3673;52.480;13.348;2023-07-31T14:33:47;8.23;;;3.25;;
7263;SDS011;3673;52.480;13.348;2023-07-31T14:36:14;6.72;;;2.85;;
7263;SDS011;3673;52.480;13.348;2023-07-31T14:38:41;5.03;;;2.58;;
7263;SDS011;3673;52.480;13.348;2023-07-31T14:41:08;7.63;;;2.70;;
7263;SDS011;3673;52.480;13.348;2023-07-31T14:43:36;4.25;;;2.83;;
7263;SDS011;3673;52.480;13.348;2023-07-31T14:46:03;5.03;;;2.60;;
7263;SDS011;3673;52.480;13.348;2023-07-31T14:48:31;4.15;;;2.50;;
7263;SDS011;3673;52.480;13.348;2023-07-31T14:50:57;5.18;;;2.63;;
7263;SDS011;3673;52.480;13.348;2023-07-31T14:53:24;6.75;;;3.38;;
7263;SDS011;3673;52.480;13.348;2023-07-31T14:55:51;4.22;;;2.88;;
7263;SDS011;3673;52.480;13.348;2023-07-31T14:58:17;5.93;;;3.30;;
7263;SDS011;3673;52.480;13.348;2023-07-31T15:00:46;3.88;;;2.33;;
7263;SDS011;3673;52.480;13.348;2023-07-31T15:03:12;5.60;;;2.83;;